sensor_id;sensor_type;location;lat;lon;timestamp;P1;durP1;ratioP1;P2;durP2;ratioP2
69783;SDS011;57054;51.978;4.498;2023-06-05T00:00:24;3.60;;;3.30;;
69783;SDS011;57054;51.978;4.498;2023-06-05T00:02:49;4.43;;;3.83;;
69783;SDS011;57054;51.978;4.498;2023-06-05T00:05:15;6.38;;;3.53;;
69783;SDS011;57054;51.978;4.498;2023-06-05T00:07:40;4.57;;;3.60;;
69783;SDS011;57054;51.978;4.498;2023-06-05T00:10:06;3.75;;;3.45;;
69783;SDS011;57054;51.978;4.498;2023-06-05T00:12:33;4.50;;;3.50;;
69783;SDS011;57054;51.978;4.498;2023-06-05T00:14:59;4.63;;;3.75;;
69783;SDS011;57054;51.978;4.498;2023-06-05T00:17:24;8.73;;;4.18;;
69783;SDS011;57054;51.978;4.498;2023-06-05T00:19:50;4.90;;;4.30;;
69783;SDS011;57054;51.978;4.498;2023-06-05T00:22:15;6.75;;;4.45;;
69783;SDS011;57054;51.978;4.498;2023-06-05T00:24:41;4.93;;;4.38;;
69783;SDS011;57054;51.978;4.498;2023-06-05T00:27:06;5.22;;;4.13;;
69783;SDS011;57054;51.978;4.498;2023-06-05T00:29:32;5.78;;;3.60;;
69783;SDS011;57054;51.978;4.498;2023-06-05T00:31:57;4.70;;;4.18;;
69783;SDS011;57054;51.978;4.498;2023-06-05T00:34:23;8.50;;;3.92;;
69783;SDS011;57054;51.978;4.498;2023-06-05T00:36:48;5.40;;;4.13;;
69783;SDS011;57054;51.978;4.498;2023-06-05T00:39:16;6.50;;;4.38;;
69783;SDS011;57054;51.978;4.498;2023-06-05T00:41:45;4.10;;;3.67;;
69783;SDS011;57054;51.978;4.498;2023-06-05T00:44:10;4.13;;;3.83;;
69783;SDS011;57054;51.978;4.498;2023-06-05T00:46:36;6.15;;;4.50;;
69783;SDS011;57054;51.978;4.498;2023-06-05T00:49:03;5.53;;;4.68;;
69783;SDS011;57054;51.978;4.498;2023-06-05T00:51:29;5.97;;;3.78;;
69783;SDS011;57054;51.978;4.498;2023-06-05T00:53:55;4.28;;;3.97;;
69783;SDS011;57054;51.978;4.498;2023-06-05T00:56:20;7.47;;;4.45;;
69783;SDS011;57054;51.978;4.498;2023-06-05T00:58:47;4.85;;;4.38;;
69783;SDS011;57054;51.978;4.498;2023-06-05T01:01:13;6.80;;;4.70;;
69783;SDS011;57054;51.978;4.498;2023-06-05T01:03:40;6.25;;;4.43;;
69783;SDS011;57054;51.978;4.498;2023-06-05T01:06:06;4.85;;;4.45;;
69783;SDS011;57054;51.978;4.498;2023-06-05T01:08:32;5.57;;;4.35;;
69783;SDS011;57054;51.978;4.498;2023-06-05T01:11:28;6.20;;;4.53;;
69783;SDS011;57054;51.978;4.498;2023-06-05T01:14:02;6.03;;;5.03;;
69783;SDS011;57054;51.978;4.498;2023-06-05T01:16:37;6.07;;;4.97;;
69783;SDS011;57054;51.978;4.498;2023-06-05T01:19:04;5.32;;;4.82;;
69783;SDS011;57054;51.978;4.498;2023-06-05T01:21:31;6.22;;;4.85;;
69783;SDS011;57054;51.978;4.498;2023-06-05T01:23:57;6.75;;;4.40;;
69783;SDS011;57054;51.978;4.498;2023-06-05T01:26:28;9.30;;;5.10;;
69783;SDS011;57054;51.978;4.498;2023-06-05T01:29:01;7.28;;;4.65;;
69783;SDS011;57054;51.978;4.498;2023-06-05T01:31:31;7.20;;;4.93;;
69783;SDS011;57054;51.978;4.498;2023-06-05T01:34:02;7.93;;;5.18;;
69783;SDS011;57054;51.978;4.498;2023-06-05T01:36:32;7.40;;;5.30;;
69783;SDS011;57054;51.978;4.498;2023-06-05T01:38:58;8.07;;;5.25;;
69783;SDS011;57054;51.978;4.498;2023-06-05T01:41:25;7.43;;;5.05;;
69783;SDS011;57054;51.978;4.498;2023-06-05T01:43:52;4.97;;;4.63;;
69783;SDS011;57054;51.978;4.498;2023-06-05T01:46:21;12.05;;;6.28;;
69783;SDS011;57054;51.978;4.498;2023-06-05T01:48:47;6.80;;;5.72;;
69783;SDS011;57054;51.978;4.498;2023-06-05T01:51:13;6.90;;;5.05;;
69783;SDS011;57054;51.978;4.498;2023-06-05T01:53:38;6.70;;;5.10;;
69783;SDS011;57054;51.978;4.498;2023-06-05T01:56:04;6.93;;;5.03;;
69783;SDS011;57054;51.978;4.498;2023-06-05T01:58:31;10.85;;;5.60;;
69783;SDS011;57054;51.978;4.498;2023-06-05T02:00:57;6.13;;;5.55;;
69783;SDS011;57054;51.978;4.498;2023-06-05T02:03:23;7.18;;;4.57;;
69783;SDS011;57054;51.978;4.498;2023-06-05T02:05:49;9.98;;;5.53;;
69783;SDS011;57054;51.978;4.498;2023-06-05T02:08:16;6.47;;;5.13;;
69783;SDS011;57054;51.978;4.498;2023-06-05T02:10:47;10.68;;;4.90;;
69783;SDS011;57054;51.978;4.498;2023-06-05T02:13:12;6.43;;;4.95;;
69783;SDS011;57054;51.978;4.498;2023-06-05T02:15:40;5.32;;;4.90;;
69783;SDS011;57054;51.978;4.498;2023-06-05T02:18:07;6.88;;;5.28;;
69783;SDS011;57054;51.978;4.498;2023-06-05T02:20:32;5.03;;;4.63;;
69783;SDS011;57054;51.978;4.498;2023-06-05T02:23:00;5.90;;;5.40;;
69783;SDS011;57054;51.978;4.498;2023-06-05T02:25:26;5.65;;;4.97;;
69783;SDS011;57054;51.978;4.498;2023-06-05T02:27:52;7.22;;;4.88;;
69783;SDS011;57054;51.978;4.498;2023-06-05T02:30:21;6.30;;;5.10;;
69783;SDS011;57054;51.978;4.498;2023-06-05T02:32:47;5.68;;;5.00;;
69783;SDS011;57054;51.978;4.498;2023-06-05T02:35:13;5.38;;;4.88;;
69783;SDS011;57054;51.978;4.498;2023-06-05T02:37:39;7.78;;;5.13;;
69783;SDS011;57054;51.978;4.498;2023-06-05T02:40:09;7.75;;;4.85;;
69783;SDS011;57054;51.978;4.498;2023-06-05T02:42:36;5.47;;;4.97;;
69783;SDS011;57054;51.978;4.498;2023-06-05T02:45:03;6.88;;;4.70;;
69783;SDS011;57054;51.978;4.498;2023-06-05T02:47:29;6.30;;;4.43;;
69783;SDS011;57054;51.978;4.498;2023-06-05T02:49:56;6.60;;;5.45;;
69783;SDS011;57054;51.978;4.498;2023-06-05T02:52:22;5.45;;;4.78;;
69783;SDS011;57054;51.978;4.498;2023-06-05T02:54:47;8.77;;;5.13;;
69783;SDS011;57054;51.978;4.498;2023-06-05T02:57:13;7.10;;;4.70;;
69783;SDS011;57054;51.978;4.498;2023-06-05T02:59:40;5.30;;;4.80;;
69783;SDS011;57054;51.978;4.498;2023-06-05T03:02:06;7.53;;;5.20;;
69783;SDS011;57054;51.978;4.498;2023-06-05T03:04:31;5.38;;;4.78;;
69783;SDS011;57054;51.978;4.498;2023-06-05T03:06:57;6.97;;;4.97;;
69783;SDS011;57054;51.978;4.498;2023-06-05T03:09:27;9.38;;;5.80;;
69783;SDS011;57054;51.978;4.498;2023-06-05T03:11:53;9.55;;;5.05;;
69783;SDS011;57054;51.978;4.498;2023-06-05T03:14:19;5.97;;;4.85;;
69783;SDS011;57054;51.978;4.498;2023-06-05T03:16:44;6.60;;;5.13;;
69783;SDS011;57054;51.978;4.498;2023-06-05T03:19:10;7.50;;;5.15;;
69783;SDS011;57054;51.978;4.498;2023-06-05T03:21:37;10.18;;;5.13;;
69783;SDS011;57054;51.978;4.498;2023-06-05T03:24:04;7.45;;;5.10;;
69783;SDS011;57054;51.978;4.498;2023-06-05T03:26:31;6.90;;;4.80;;
69783;SDS011;57054;51.978;4.498;2023-06-05T03:28:57;7.57;;;5.13;;
69783;SDS011;57054;51.978;4.498;2023-06-05T03:31:23;7.30;;;4.72;;
69783;SDS011;57054;51.978;4.498;2023-06-05T03:33:48;7.07;;;5.18;;
69783;SDS011;57054;51.978;4.498;2023-06-05T03:36:14;6.65;;;5.35;;
69783;SDS011;57054;51.978;4.498;2023-06-05T03:38:43;7.57;;;5.20;;
69783;SDS011;57054;51.978;4.498;2023-06-05T03:41:08;8.23;;;4.95;;
69783;SDS011;57054;51.978;4.498;2023-06-05T03:43:34;9.93;;;5.55;;
69783;SDS011;57054;51.978;4.498;2023-06-05T03:45:59;5.80;;;5.20;;
69783;SDS011;57054;51.978;4.498;2023-06-05T03:48:25;8.93;;;5.00;;
69783;SDS011;57054;51.978;4.498;2023-06-05T03:50:51;6.00;;;5.32;;
69783;SDS011;57054;51.978;4.498;2023-06-05T03:53:18;10.38;;;5.40;;
69783;SDS011;57054;51.978;4.498;2023-06-05T03:55:44;12.18;;;5.88;;
69783;SDS011;57054;51.978;4.498;2023-06-05T03:58:11;8.57;;;4.97;;
69783;SDS011;57054;51.978;4.498;2023-06-05T04:00:39;9.57;;;5.65;;
69783;SDS011;57054;51.978;4.498;2023-06-05T04:03:09;5.93;;;4.80;;
69783;SDS011;57054;51.978;4.498;2023-06-05T04:05:36;7.85;;;5.95;;
69783;SDS011;57054;51.978;4.498;2023-06-05T04:08:02;7.47;;;5.20;;
69783;SDS011;57054;51.978;4.498;2023-06-05T04:10:28;6.75;;;5.25;;
69783;SDS011;57054;51.978;4.498;2023-06-05T04:12:54;7.07;;;4.78;;
69783;SDS011;57054;51.978;4.498;2023-06-05T04:15:20;8.55;;;5.53;;
69783;SDS011;57054;51.978;4.498;2023-06-05T04:17:45;9.88;;;5.35;;
69783;SDS011;57054;51.978;4.498;2023-06-05T04:20:11;13.63;;;5.30;;
69783;SDS011;57054;51.978;4.498;2023-06-05T04:22:39;5.40;;;5.00;;
69783;SDS011;57054;51.978;4.498;2023-06-05T04:27:35;10.45;;;4.90;;
69783;SDS011;57054;51.978;4.498;2023-06-05T04:30:03;8.77;;;5.15;;
69783;SDS011;57054;51.978;4.498;2023-06-05T04:32:32;8.65;;;4.43;;
69783;SDS011;57054;51.978;4.498;2023-06-05T04:34:59;5.20;;;4.70;;
69783;SDS011;57054;51.978;4.498;2023-06-05T04:37:25;5.85;;;5.35;;
69783;SDS011;57054;51.978;4.498;2023-06-05T04:39:51;9.15;;;5.45;;
69783;SDS011;57054;51.978;4.498;2023-06-05T04:42:17;8.45;;;5.47;;
69783;SDS011;57054;51.978;4.498;2023-06-05T04:44:43;6.18;;;5.57;;
69783;SDS011;57054;51.978;4.498;2023-06-05T04:47:08;7.68;;;5.57;;
69783;SDS011;57054;51.978;4.498;2023-06-05T04:49:34;6.03;;;5.43;;
69783;SDS011;57054;51.978;4.498;2023-06-05T04:51:59;6.80;;;5.55;;
69783;SDS011;57054;51.978;4.498;2023-06-05T04:54:24;6.35;;;4.45;;
69783;SDS011;57054;51.978;4.498;2023-06-05T04:56:50;5.53;;;5.05;;
69783;SDS011;57054;51.978;4.498;2023-06-05T04:59:17;6.65;;;4.80;;
69783;SDS011;57054;51.978;4.498;2023-06-05T05:01:43;8.60;;;5.25;;
69783;SDS011;57054;51.978;4.498;2023-06-05T05:04:08;8.35;;;5.00;;
69783;SDS011;57054;51.978;4.498;2023-06-05T05:06:34;7.40;;;5.30;;
69783;SDS011;57054;51.978;4.498;2023-06-05T05:08:59;9.07;;;5.45;;
69783;SDS011;57054;51.978;4.498;2023-06-05T05:11:25;6.63;;;5.50;;
69783;SDS011;57054;51.978;4.498;2023-06-05T05:13:52;5.63;;;5.07;;
69783;SDS011;57054;51.978;4.498;2023-06-05T05:16:17;9.35;;;5.43;;
69783;SDS011;57054;51.978;4.498;2023-06-05T05:18:43;6.45;;;5.63;;
69783;SDS011;57054;51.978;4.498;2023-06-05T05:21:09;8.40;;;5.55;;
69783;SDS011;57054;51.978;4.498;2023-06-05T05:23:35;6.65;;;5.68;;
69783;SDS011;57054;51.978;4.498;2023-06-05T05:26:00;6.57;;;5.13;;
69783;SDS011;57054;51.978;4.498;2023-06-05T05:28:27;6.10;;;5.50;;
69783;SDS011;57054;51.978;4.498;2023-06-05T05:30:55;13.00;;;5.45;;
69783;SDS011;57054;51.978;4.498;2023-06-05T05:33:23;10.98;;;6.25;;
69783;SDS011;57054;51.978;4.498;2023-06-05T05:35:49;6.78;;;5.10;;
69783;SDS011;57054;51.978;4.498;2023-06-05T05:38:15;5.93;;;5.38;;
69783;SDS011;57054;51.978;4.498;2023-06-05T05:40:41;5.45;;;4.97;;
69783;SDS011;57054;51.978;4.498;2023-06-05T05:43:06;7.20;;;5.88;;
69783;SDS011;57054;51.978;4.498;2023-06-05T05:45:31;6.88;;;5.53;;
69783;SDS011;57054;51.978;4.498;2023-06-05T05:47:57;5.93;;;5.18;;
69783;SDS011;57054;51.978;4.498;2023-06-05T05:50:22;10.55;;;5.85;;
69783;SDS011;57054;51.978;4.498;2023-06-05T05:52:48;6.28;;;5.47;;
69783;SDS011;57054;51.978;4.498;2023-06-05T05:55:14;6.68;;;5.55;;
69783;SDS011;57054;51.978;4.498;2023-06-05T05:57:39;5.57;;;5.05;;
69783;SDS011;57054;51.978;4.498;2023-06-05T06:00:05;6.72;;;5.50;;
69783;SDS011;57054;51.978;4.498;2023-06-05T06:02:40;9.05;;;5.10;;
69783;SDS011;57054;51.978;4.498;2023-06-05T06:05:07;7.03;;;4.88;;
69783;SDS011;57054;51.978;4.498;2023-06-05T06:07:33;8.25;;;5.13;;
69783;SDS011;57054;51.978;4.498;2023-06-05T06:10:00;5.90;;;5.38;;
69783;SDS011;57054;51.978;4.498;2023-06-05T06:12:26;5.82;;;5.20;;
69783;SDS011;57054;51.978;4.498;2023-06-05T06:14:53;5.35;;;4.85;;
69783;SDS011;57054;51.978;4.498;2023-06-05T06:19:47;6.37;;;5.10;;
69783;SDS011;57054;51.978;4.498;2023-06-05T06:22:13;6.60;;;4.72;;
69783;SDS011;57054;51.978;4.498;2023-06-05T06:24:40;5.95;;;5.40;;
69783;SDS011;57054;51.978;4.498;2023-06-05T06:27:06;6.75;;;5.30;;
69783;SDS011;57054;51.978;4.498;2023-06-05T06:29:34;6.57;;;4.90;;
69783;SDS011;57054;51.978;4.498;2023-06-05T06:31:59;6.18;;;4.70;;
69783;SDS011;57054;51.978;4.498;2023-06-05T06:34:25;4.97;;;4.47;;
69783;SDS011;57054;51.978;4.498;2023-06-05T06:36:51;5.50;;;5.00;;
69783;SDS011;57054;51.978;4.498;2023-06-05T06:39:17;5.43;;;4.75;;
69783;SDS011;57054;51.978;4.498;2023-06-05T06:41:43;5.32;;;4.75;;
69783;SDS011;57054;51.978;4.498;2023-06-05T06:44:09;5.25;;;4.53;;
69783;SDS011;57054;51.978;4.498;2023-06-05T06:46:35;5.03;;;4.55;;
69783;SDS011;57054;51.978;4.498;2023-06-05T06:49:01;9.32;;;4.97;;
69783;SDS011;57054;51.978;4.498;2023-06-05T06:51:27;6.68;;;5.05;;
69783;SDS011;57054;51.978;4.498;2023-06-05T06:53:53;5.63;;;4.97;;
69783;SDS011;57054;51.978;4.498;2023-06-05T06:56:18;6.45;;;4.88;;
69783;SDS011;57054;51.978;4.498;2023-06-05T06:58:44;6.13;;;4.32;;
69783;SDS011;57054;51.978;4.498;2023-06-05T07:01:10;4.57;;;4.18;;
69783;SDS011;57054;51.978;4.498;2023-06-05T07:03:37;4.65;;;3.88;;
69783;SDS011;57054;51.978;4.498;2023-06-05T07:06:03;3.67;;;3.38;;
69783;SDS011;57054;51.978;4.498;2023-06-05T07:08:29;8.85;;;3.70;;
69783;SDS011;57054;51.978;4.498;2023-06-05T07:10:54;4.32;;;3.10;;
69783;SDS011;57054;51.978;4.498;2023-06-05T07:13:20;5.32;;;3.53;;
69783;SDS011;57054;51.978;4.498;2023-06-05T07:15:46;6.95;;;3.65;;
69783;SDS011;57054;51.978;4.498;2023-06-05T07:18:12;14.98;;;4.43;;
69783;SDS011;57054;51.978;4.498;2023-06-05T07:20:37;5.60;;;3.00;;
69783;SDS011;57054;51.978;4.498;2023-06-05T07:23:03;4.75;;;3.50;;
69783;SDS011;57054;51.978;4.498;2023-06-05T07:25:28;6.10;;;3.80;;
69783;SDS011;57054;51.978;4.498;2023-06-05T07:27:54;5.05;;;3.20;;
69783;SDS011;57054;51.978;4.498;2023-06-05T07:30:20;16.38;;;4.25;;
69783;SDS011;57054;51.978;4.498;2023-06-05T07:32:45;5.35;;;3.72;;
69783;SDS011;57054;51.978;4.498;2023-06-05T07:35:11;5.05;;;3.63;;
69783;SDS011;57054;51.978;4.498;2023-06-05T07:37:37;10.32;;;3.72;;
69783;SDS011;57054;51.978;4.498;2023-06-05T07:40:04;4.72;;;3.67;;
69783;SDS011;57054;51.978;4.498;2023-06-05T07:42:30;5.85;;;3.70;;
69783;SDS011;57054;51.978;4.498;2023-06-05T07:44:56;5.43;;;3.60;;
69783;SDS011;57054;51.978;4.498;2023-06-05T07:47:21;5.10;;;3.60;;
69783;SDS011;57054;51.978;4.498;2023-06-05T07:49:57;4.95;;;3.20;;
69783;SDS011;57054;51.978;4.498;2023-06-05T07:52:24;9.27;;;3.60;;
69783;SDS011;57054;51.978;4.498;2023-06-05T07:54:50;3.83;;;3.60;;
69783;SDS011;57054;51.978;4.498;2023-06-05T07:57:16;11.70;;;4.00;;
69783;SDS011;57054;51.978;4.498;2023-06-05T07:59:42;4.00;;;3.70;;
69783;SDS011;57054;51.978;4.498;2023-06-05T08:02:08;3.85;;;3.50;;
69783;SDS011;57054;51.978;4.498;2023-06-05T08:04:33;3.92;;;3.63;;
69783;SDS011;57054;51.978;4.498;2023-06-05T08:06:58;6.93;;;3.58;;
69783;SDS011;57054;51.978;4.498;2023-06-05T08:09:24;6.90;;;3.63;;
69783;SDS011;57054;51.978;4.498;2023-06-05T08:11:50;5.10;;;3.63;;
69783;SDS011;57054;51.978;4.498;2023-06-05T08:14:15;4.10;;;3.75;;
69783;SDS011;57054;51.978;4.498;2023-06-05T08:16:41;4.78;;;3.92;;
69783;SDS011;57054;51.978;4.498;2023-06-05T08:19:06;4.72;;;3.88;;
69783;SDS011;57054;51.978;4.498;2023-06-05T08:21:31;6.63;;;3.42;;
69783;SDS011;57054;51.978;4.498;2023-06-05T08:23:58;4.78;;;3.63;;
69783;SDS011;57054;51.978;4.498;2023-06-05T08:26:23;4.88;;;3.63;;
69783;SDS011;57054;51.978;4.498;2023-06-05T08:28:49;6.50;;;3.58;;
69783;SDS011;57054;51.978;4.498;2023-06-05T08:31:15;3.60;;;3.30;;
69783;SDS011;57054;51.978;4.498;2023-06-05T08:33:41;7.20;;;3.40;;
69783;SDS011;57054;51.978;4.498;2023-06-05T08:36:07;4.40;;;3.50;;
69783;SDS011;57054;51.978;4.498;2023-06-05T08:38:33;8.82;;;4.05;;
69783;SDS011;57054;51.978;4.498;2023-06-05T08:41:00;6.20;;;3.80;;
69783;SDS011;57054;51.978;4.498;2023-06-05T08:43:27;5.07;;;3.30;;
69783;SDS011;57054;51.978;4.498;2023-06-05T08:45:53;3.80;;;3.40;;
69783;SDS011;57054;51.978;4.498;2023-06-05T08:48:20;5.90;;;3.40;;
69783;SDS011;57054;51.978;4.498;2023-06-05T08:50:47;4.53;;;3.42;;
69783;SDS011;57054;51.978;4.498;2023-06-05T08:53:13;4.30;;;3.30;;
69783;SDS011;57054;51.978;4.498;2023-06-05T08:55:42;4.95;;;3.90;;
69783;SDS011;57054;51.978;4.498;2023-06-05T08:58:09;5.85;;;3.88;;
69783;SDS011;57054;51.978;4.498;2023-06-05T09:00:37;4.78;;;3.22;;
69783;SDS011;57054;51.978;4.498;2023-06-05T09:03:03;3.72;;;3.25;;
69783;SDS011;57054;51.978;4.498;2023-06-05T09:05:28;8.13;;;3.63;;
69783;SDS011;57054;51.978;4.498;2023-06-05T09:07:54;3.83;;;3.60;;
69783;SDS011;57054;51.978;4.498;2023-06-05T09:10:28;6.45;;;3.60;;
69783;SDS011;57054;51.978;4.498;2023-06-05T09:12:55;3.67;;;3.38;;
69783;SDS011;57054;51.978;4.498;2023-06-05T09:15:26;3.90;;;3.50;;
69783;SDS011;57054;51.978;4.498;2023-06-05T09:20:36;5.22;;;3.90;;
69783;SDS011;57054;51.978;4.498;2023-06-05T09:23:03;4.20;;;3.80;;
69783;SDS011;57054;51.978;4.498;2023-06-05T09:25:45;5.95;;;3.15;;
69783;SDS011;57054;51.978;4.498;2023-06-05T09:28:15;4.55;;;3.28;;
69783;SDS011;57054;51.978;4.498;2023-06-05T09:31:00;3.85;;;3.33;;
69783;SDS011;57054;51.978;4.498;2023-06-05T09:33:28;3.47;;;3.20;;
69783;SDS011;57054;51.978;4.498;2023-06-05T09:36:04;3.83;;;3.13;;
69783;SDS011;57054;51.978;4.498;2023-06-05T09:38:35;3.58;;;3.28;;
69783;SDS011;57054;51.978;4.498;2023-06-05T09:41:02;3.53;;;3.10;;
69783;SDS011;57054;51.978;4.498;2023-06-05T09:43:39;3.55;;;3.20;;
69783;SDS011;57054;51.978;4.498;2023-06-05T09:46:14;6.20;;;3.42;;
69783;SDS011;57054;51.978;4.498;2023-06-05T09:48:41;4.68;;;3.00;;
69783;SDS011;57054;51.978;4.498;2023-06-05T09:51:11;3.45;;;2.95;;
69783;SDS011;57054;51.978;4.498;2023-06-05T09:53:40;4.57;;;3.60;;
69783;SDS011;57054;51.978;4.498;2023-06-05T09:56:16;5.82;;;3.22;;
69783;SDS011;57054;51.978;4.498;2023-06-05T09:58:47;6.03;;;3.60;;
69783;SDS011;57054;51.978;4.498;2023-06-05T10:01:18;3.38;;;3.17;;
69783;SDS011;57054;51.978;4.498;2023-06-05T10:03:53;3.65;;;3.33;;
69783;SDS011;57054;51.978;4.498;2023-06-05T10:06:26;4.78;;;3.53;;
69783;SDS011;57054;51.978;4.498;2023-06-05T10:08:53;3.73;;;3.07;;
69783;SDS011;57054;51.978;4.498;2023-06-05T10:11:21;3.33;;;3.13;;
69783;SDS011;57054;51.978;4.498;2023-06-05T10:13:48;4.60;;;3.17;;
69783;SDS011;57054;51.978;4.498;2023-06-05T10:16:16;4.68;;;3.17;;
69783;SDS011;57054;51.978;4.498;2023-06-05T10:18:45;3.55;;;3.22;;
69783;SDS011;57054;51.978;4.498;2023-06-05T10:21:12;3.67;;;3.17;;
69783;SDS011;57054;51.978;4.498;2023-06-05T10:23:45;4.13;;;3.20;;
69783;SDS011;57054;51.978;4.498;2023-06-05T10:26:23;5.93;;;3.30;;
69783;SDS011;57054;51.978;4.498;2023-06-05T10:28:58;3.83;;;3.00;;
69783;SDS011;57054;51.978;4.498;2023-06-05T10:31:30;4.95;;;3.17;;
69783;SDS011;57054;51.978;4.498;2023-06-05T10:34:20;4.10;;;3.55;;
69783;SDS011;57054;51.978;4.498;2023-06-05T10:37:12;4.65;;;3.53;;
69783;SDS011;57054;51.978;4.498;2023-06-05T10:39:46;3.58;;;3.28;;
69783;SDS011;57054;51.978;4.498;2023-06-05T10:42:21;4.28;;;3.85;;
69783;SDS011;57054;51.978;4.498;2023-06-05T10:44:51;4.30;;;3.63;;
69783;SDS011;57054;51.978;4.498;2023-06-05T10:52:58;4.07;;;3.55;;
69783;SDS011;57054;51.978;4.498;2023-06-05T10:55:24;5.13;;;3.88;;
69783;SDS011;57054;51.978;4.498;2023-06-05T11:00:36;4.60;;;4.20;;
69783;SDS011;57054;51.978;4.498;2023-06-05T11:03:04;4.28;;;3.95;;
69783;SDS011;57054;51.978;4.498;2023-06-05T11:05:31;5.00;;;4.50;;
69783;SDS011;57054;51.978;4.498;2023-06-05T11:08:09;5.85;;;4.07;;
69783;SDS011;57054;51.978;4.498;2023-06-05T11:10:38;5.60;;;4.05;;
69783;SDS011;57054;51.978;4.498;2023-06-05T11:16:28;5.30;;;4.00;;
69783;SDS011;57054;51.978;4.498;2023-06-05T11:19:34;6.45;;;3.95;;
69783;SDS011;57054;51.978;4.498;2023-06-05T11:24:36;7.32;;;4.68;;
69783;SDS011;57054;51.978;4.498;2023-06-05T11:27:05;8.40;;;4.80;;
69783;SDS011;57054;51.978;4.498;2023-06-05T11:29:34;7.35;;;4.75;;
69783;SDS011;57054;51.978;4.498;2023-06-05T11:32:00;16.08;;;4.75;;
69783;SDS011;57054;51.978;4.498;2023-06-05T11:34:35;7.63;;;4.57;;
69783;SDS011;57054;51.978;4.498;2023-06-05T11:37:16;6.45;;;4.45;;
69783;SDS011;57054;51.978;4.498;2023-06-05T11:39:43;6.90;;;5.35;;
69783;SDS011;57054;51.978;4.498;2023-06-05T11:42:09;6.97;;;4.80;;
69783;SDS011;57054;51.978;4.498;2023-06-05T11:44:34;5.50;;;4.93;;
69783;SDS011;57054;51.978;4.498;2023-06-05T11:47:01;6.63;;;5.00;;
69783;SDS011;57054;51.978;4.498;2023-06-05T11:49:27;7.53;;;5.00;;
69783;SDS011;57054;51.978;4.498;2023-06-05T11:51:54;5.70;;;4.68;;
69783;SDS011;57054;51.978;4.498;2023-06-05T11:57:10;6.70;;;4.70;;
69783;SDS011;57054;51.978;4.498;2023-06-05T11:59:38;7.07;;;4.25;;
69783;SDS011;57054;51.978;4.498;2023-06-05T12:02:04;4.97;;;4.00;;
69783;SDS011;57054;51.978;4.498;2023-06-05T12:04:30;8.27;;;5.10;;
69783;SDS011;57054;51.978;4.498;2023-06-05T12:06:56;6.40;;;4.85;;
69783;SDS011;57054;51.978;4.498;2023-06-05T12:09:24;5.25;;;4.68;;
69783;SDS011;57054;51.978;4.498;2023-06-05T12:11:50;5.35;;;4.95;;
69783;SDS011;57054;51.978;4.498;2023-06-05T12:14:31;4.75;;;4.20;;
69783;SDS011;57054;51.978;4.498;2023-06-05T12:16:58;5.57;;;4.95;;
69783;SDS011;57054;51.978;4.498;2023-06-05T12:19:24;9.38;;;5.43;;
69783;SDS011;57054;51.978;4.498;2023-06-05T12:21:49;5.07;;;4.55;;
69783;SDS011;57054;51.978;4.498;2023-06-05T12:24:26;6.90;;;4.95;;
69783;SDS011;57054;51.978;4.498;2023-06-05T12:29:22;7.50;;;4.80;;
69783;SDS011;57054;51.978;4.498;2023-06-05T12:31:58;5.00;;;3.50;;
69783;SDS011;57054;51.978;4.498;2023-06-05T12:37:22;7.32;;;3.58;;
69783;SDS011;57054;51.978;4.498;2023-06-05T12:39:57;6.10;;;4.05;;
69783;SDS011;57054;51.978;4.498;2023-06-05T12:42:23;6.57;;;3.38;;
69783;SDS011;57054;51.978;4.498;2023-06-05T12:44:49;7.68;;;3.83;;
69783;SDS011;57054;51.978;4.498;2023-06-05T12:47:15;5.35;;;3.90;;
69783;SDS011;57054;51.978;4.498;2023-06-05T12:49:41;7.38;;;3.40;;
69783;SDS011;57054;51.978;4.498;2023-06-05T12:52:06;5.30;;;3.28;;
69783;SDS011;57054;51.978;4.498;2023-06-05T12:54:34;8.48;;;3.47;;
69783;SDS011;57054;51.978;4.498;2023-06-05T12:57:00;9.88;;;3.75;;
69783;SDS011;57054;51.978;4.498;2023-06-05T12:59:26;5.97;;;3.60;;
69783;SDS011;57054;51.978;4.498;2023-06-05T13:01:51;7.88;;;3.58;;
69783;SDS011;57054;51.978;4.498;2023-06-05T13:04:17;5.63;;;3.67;;
69783;SDS011;57054;51.978;4.498;2023-06-05T13:06:42;7.25;;;3.78;;
69783;SDS011;57054;51.978;4.498;2023-06-05T13:09:08;3.47;;;3.17;;
69783;SDS011;57054;51.978;4.498;2023-06-05T13:11:34;7.65;;;3.72;;
69783;SDS011;57054;51.978;4.498;2023-06-05T13:14:00;6.45;;;3.63;;
69783;SDS011;57054;51.978;4.498;2023-06-05T13:16:25;6.65;;;3.65;;
69783;SDS011;57054;51.978;4.498;2023-06-05T13:18:51;6.45;;;3.47;;
69783;SDS011;57054;51.978;4.498;2023-06-05T13:21:17;7.50;;;3.97;;
69783;SDS011;57054;51.978;4.498;2023-06-05T13:23:42;6.43;;;3.67;;
69783;SDS011;57054;51.978;4.498;2023-06-05T13:26:07;6.03;;;3.53;;
69783;SDS011;57054;51.978;4.498;2023-06-05T13:28:33;4.72;;;3.17;;
69783;SDS011;57054;51.978;4.498;2023-06-05T13:30:58;7.78;;;3.28;;
69783;SDS011;57054;51.978;4.498;2023-06-05T13:33:24;10.07;;;3.80;;
69783;SDS011;57054;51.978;4.498;2023-06-05T13:35:52;8.55;;;3.70;;
69783;SDS011;57054;51.978;4.498;2023-06-05T13:38:21;5.85;;;3.65;;
69783;SDS011;57054;51.978;4.498;2023-06-05T13:40:46;11.95;;;3.47;;
69783;SDS011;57054;51.978;4.498;2023-06-05T13:43:15;5.93;;;3.53;;
69783;SDS011;57054;51.978;4.498;2023-06-05T13:45:40;5.60;;;3.38;;
69783;SDS011;57054;51.978;4.498;2023-06-05T13:48:06;6.13;;;3.30;;
69783;SDS011;57054;51.978;4.498;2023-06-05T13:50:31;6.35;;;3.38;;
69783;SDS011;57054;51.978;4.498;2023-06-05T13:52:57;4.75;;;2.88;;
69783;SDS011;57054;51.978;4.498;2023-06-05T13:55:22;5.22;;;3.40;;
69783;SDS011;57054;51.978;4.498;2023-06-05T13:57:48;10.95;;;3.33;;
69783;SDS011;57054;51.978;4.498;2023-06-05T14:00:13;6.85;;;3.42;;
69783;SDS011;57054;51.978;4.498;2023-06-05T14:02:40;10.73;;;3.97;;
69783;SDS011;57054;51.978;4.498;2023-06-05T14:05:06;7.82;;;3.55;;
69783;SDS011;57054;51.978;4.498;2023-06-05T14:07:33;8.25;;;3.58;;
69783;SDS011;57054;51.978;4.498;2023-06-05T14:09:59;12.77;;;3.47;;
69783;SDS011;57054;51.978;4.498;2023-06-05T14:12:25;8.88;;;3.90;;
69783;SDS011;57054;51.978;4.498;2023-06-05T14:14:50;8.35;;;4.03;;
69783;SDS011;57054;51.978;4.498;2023-06-05T14:17:16;9.20;;;4.30;;
69783;SDS011;57054;51.978;4.498;2023-06-05T14:19:41;6.20;;;3.85;;
69783;SDS011;57054;51.978;4.498;2023-06-05T14:22:06;9.30;;;4.57;;
69783;SDS011;57054;51.978;4.498;2023-06-05T14:24:33;10.82;;;4.07;;
69783;SDS011;57054;51.978;4.498;2023-06-05T14:26:58;6.03;;;3.67;;
69783;SDS011;57054;51.978;4.498;2023-06-05T14:29:24;10.80;;;4.38;;
69783;SDS011;57054;51.978;4.498;2023-06-05T14:31:49;5.45;;;3.67;;
69783;SDS011;57054;51.978;4.498;2023-06-05T14:34:15;11.02;;;3.72;;
69783;SDS011;57054;51.978;4.498;2023-06-05T14:36:40;6.22;;;3.50;;
69783;SDS011;57054;51.978;4.498;2023-06-05T14:39:06;6.57;;;3.78;;
69783;SDS011;57054;51.978;4.498;2023-06-05T14:41:32;5.93;;;3.50;;
69783;SDS011;57054;51.978;4.498;2023-06-05T14:43:58;9.93;;;4.03;;
69783;SDS011;57054;51.978;4.498;2023-06-05T14:46:23;6.20;;;3.80;;
69783;SDS011;57054;51.978;4.498;2023-06-05T14:48:49;7.78;;;4.18;;
69783;SDS011;57054;51.978;4.498;2023-06-05T14:51:15;8.32;;;4.38;;
69783;SDS011;57054;51.978;4.498;2023-06-05T14:53:42;6.25;;;3.55;;
69783;SDS011;57054;51.978;4.498;2023-06-05T14:56:07;7.60;;;4.22;;
69783;SDS011;57054;51.978;4.498;2023-06-05T14:58:33;5.75;;;3.85;;
69783;SDS011;57054;51.978;4.498;2023-06-05T15:00:58;8.82;;;4.55;;
69783;SDS011;57054;51.978;4.498;2023-06-05T15:03:25;7.20;;;4.57;;
69783;SDS011;57054;51.978;4.498;2023-06-05T15:05:50;5.43;;;4.05;;
69783;SDS011;57054;51.978;4.498;2023-06-05T15:08:17;10.35;;;4.22;;
69783;SDS011;57054;51.978;4.498;2023-06-05T15:10:42;9.57;;;4.25;;
69783;SDS011;57054;51.978;4.498;2023-06-05T15:13:08;9.00;;;4.00;;
69783;SDS011;57054;51.978;4.498;2023-06-05T15:15:33;6.38;;;3.72;;
69783;SDS011;57054;51.978;4.498;2023-06-05T15:17:59;5.00;;;3.45;;